Ana Sayfa
METAR-TAF:

METAR-TAF

Havaalanları :

Custer Airport

Monroe, Michigan, Amerika Birleşik Devletleri

Enlem: 41-56-24N, Boylam: 083-26-05W, yükseklik: 188 m

Güncel hava durumu gözlemi

Rapor saat 12:36 UTC de 20 dakika önce yapıldı.
Rüzgar batı/güneybatıdan 7 kt ve 15 kt'a kadar ani rüzgarlar
Sıcaklık 27°C
Nem 100%
Basınç 1012 hPa
Görüş mesafesi: 16.1 km
1200 ft yükseklikte parçalı çok bulutlu

METAR: KTTF 191236Z AUTO 24007G15KT 10SM BKN012 27/27 A2987 RMK AO2 T02700266

Saat: 08:56 (12:56 UTC)


TAF: eksik

4.000'den fazla havaalanı için hava durumu gözlemleri ve tahminleri (METAR ve TAF raporları).

Kullanılabilir istasyonlar harita üzerinde sarı ve kırmızı noktalarla gösterilir.

İstasyonun adını görmek için fareyi noktanın üzerinde gezdirin.

Sonrasında hava gözlem ve tahminlerini görmek için tıklayın.

Haritayı değiştirmek için: yaklaştırmak için siyah artı işaretli yeşil düğmeye ve uzaklaştırmak için de eksi işaretli düğmeye hızla tıklayın; bitişik haritalar için yeşil okları kullanın.


METAR-TAF: